Time;durP1;ratioP1;P1;durP2;ratioP2;P2;SDS_P1;SDS_P2;PMS_P1;PMS_P2;Temp;Humidity;BMP_temperature;BMP_pressure;BME280_temperature;BME280_humidity;BME280_pressure;Samples;Min_cycle;Max_cycle;Signal;HPM_P1;HPM_P2
2023/01/06 00:01:05;;;;;;;33.22;12.40;;;10.10;99.90;;;;;;5128028;27;20451;-59
2023/01/06 00:03:30;;;;;;;34.80;11.85;;;10.10;99.90;;;;;;5125066;27;20053;-61
2023/01/06 00:06:00;;;;;;;31.58;11.57;;;10.10;99.90;;;;;;5107696;27;20047;-61
2023/01/06 00:08:27;;;;;;;35.75;12.05;;;10.10;99.90;;;;;;5121600;27;20160;-60
2023/01/06 00:10:52;;;;;;;39.33;12.60;;;10.10;99.90;;;;;;5127457;27;20293;-59
2023/01/06 00:13:18;;;;;;;38.70;12.55;;;10.10;99.90;;;;;;5127048;27;20043;-60
2023/01/06 00:15:43;;;;;;;43.00;13.32;;;10.10;99.90;;;;;;5128232;27;20042;-59
2023/01/06 00:18:09;;;;;;;34.55;13.68;;;10.10;99.90;;;;;;5122846;27;20043;-60
2023/01/06 00:20:35;;;;;;;48.47;13.73;;;10.10;99.90;;;;;;5106372;27;20169;-59
2023/01/06 00:23:00;;;;;;;33.85;13.63;;;10.20;99.90;;;;;;5125957;27;20047;-61
2023/01/06 00:25:26;;;;;;;43.80;16.67;;;10.20;99.90;;;;;;5127329;27;20709;-61
2023/01/06 00:27:51;;;;;;;40.47;14.70;;;10.20;99.90;;;;;;5104427;27;20072;-60
2023/01/06 00:30:17;;;;;;;41.10;15.38;;;10.20;99.90;;;;;;5122688;27;20537;-60
2023/01/06 00:32:42;;;;;;;38.42;14.98;;;10.20;99.90;;;;;;5107546;27;20134;-60
2023/01/06 00:35:08;;;;;;;54.88;15.40;;;10.20;99.90;;;;;;5125733;27;20038;-61
2023/01/06 00:37:34;;;;;;;44.60;14.63;;;10.20;99.90;;;;;;5123174;27;20027;-61
2023/01/06 00:39:59;;;;;;;35.85;13.32;;;10.20;99.90;;;;;;5121348;27;20035;-59
2023/01/06 00:42:25;;;;;;;33.85;15.32;;;10.20;99.90;;;;;;5106495;27;20049;-60
2023/01/06 00:44:51;;;;;;;41.72;14.57;;;10.20;99.90;;;;;;5107613;27;20090;-61
2023/01/06 00:47:16;;;;;;;35.95;13.77;;;10.20;99.90;;;;;;5127210;27;20487;-61
2023/01/06 00:49:42;;;;;;;50.25;14.50;;;10.30;99.90;;;;;;5120778;27;20081;-61
2023/01/06 00:52:08;;;;;;;47.25;14.10;;;10.30;99.90;;;;;;5124011;27;20050;-59
2023/01/06 00:54:35;;;;;;;41.83;13.07;;;10.30;99.90;;;;;;5123168;27;20047;-60
2023/01/06 00:57:01;;;;;;;38.15;12.77;;;10.30;99.90;;;;;;5106596;27;20090;-61
2023/01/06 00:59:26;;;;;;;34.08;13.13;;;10.30;99.90;;;;;;5127958;27;20129;-60
2023/01/06 01:01:54;;;;;;;36.13;13.25;;;10.30;99.90;;;;;;5132030;27;20762;-60
2023/01/06 01:04:21;;;;;;;33.58;12.48;;;10.30;99.90;;;;;;5137694;27;20087;-59
2023/01/06 01:06:47;;;;;;;34.92;12.23;;;10.30;99.90;;;;;;5132382;27;20041;-62
2023/01/06 01:09:22;;;;;;;35.95;11.63;;;10.40;99.90;;;;;;5135672;27;20038;-60
2023/01/06 01:14:33;;;;;;;26.88;10.98;;;10.40;99.90;;;;;;5145003;27;20417;-59
2023/01/06 01:16:59;;;;;;;34.28;11.77;;;10.40;99.90;;;;;;5127607;27;20039;-58
2023/01/06 01:19:25;;;;;;;30.77;11.88;;;10.40;99.90;;;;;;5145173;27;20404;-61
2023/01/06 01:21:51;;;;;;;26.15;11.73;;;10.40;99.90;;;;;;5137386;27;20503;-60
2023/01/06 01:24:17;;;;;;;32.03;11.57;;;10.40;99.90;;;;;;5144821;27;20051;-59
2023/01/06 01:26:42;;;;;;;28.95;11.70;;;10.40;99.90;;;;;;5147067;27;20046;-61
2023/01/06 01:29:13;;;;;;;23.67;10.23;;;10.40;99.90;;;;;;5143332;27;20070;-59
2023/01/06 01:31:39;;;;;;;22.27;9.43;;;10.40;99.90;;;;;;5146207;27;20807;-60
2023/01/06 01:34:05;;;;;;;26.88;9.63;;;10.30;99.90;;;;;;5127000;27;20046;-60
2023/01/06 01:36:30;;;;;;;23.42;8.68;;;10.30;99.90;;;;;;5145524;27;20061;-61
2023/01/06 01:38:56;;;;;;;22.58;8.95;;;10.30;99.90;;;;;;5145915;27;20045;-61
2023/01/06 01:41:24;;;;;;;19.45;7.88;;;10.30;99.90;;;;;;5126834;27;20035;-59
2023/01/06 01:43:49;;;;;;;18.08;8.02;;;10.30;99.90;;;;;;5126131;27;20047;-59
2023/01/06 01:46:30;;;;;;;17.63;7.28;;;10.30;99.90;;;;;;5145821;27;20242;-59
2023/01/06 01:48:59;;;;;;;23.33;7.88;;;10.30;99.90;;;;;;5145222;27;20834;-59
2023/01/06 01:51:34;;;;;;;17.95;7.43;;;10.30;99.90;;;;;;5090512;27;1034739;-61
2023/01/06 01:54:01;;;;;;;;;;;10.30;99.90;;;;;;5146534;27;20054;-61
2023/01/06 01:56:31;;;;;;;20.30;8.25;;;10.30;99.90;;;;;;5146472;27;19919;-59
2023/01/06 01:59:24;;;;;;;20.13;8.32;;;10.30;99.90;;;;;;5145555;27;20521;-61
2023/01/06 02:01:50;;;;;;;21.40;8.27;;;10.20;99.90;;;;;;5145633;27;20047;-61
2023/01/06 02:04:17;;;;;;;19.27;9.68;;;10.30;99.90;;;;;;5146285;27;20048;-59
2023/01/06 02:06:47;;;;;;;19.42;9.13;;;10.30;99.90;;;;;;5145225;27;20056;-61
2023/01/06 02:09:34;;;;;;;19.33;8.93;;;10.30;99.90;;;;;;5109450;27;20134;-59
2023/01/06 02:12:00;;;;;;;21.27;8.50;;;10.30;99.90;;;;;;5128622;27;20049;-62
2023/01/06 02:14:27;;;;;;;23.63;9.13;;;10.30;99.90;;;;;;5145514;27;20465;-59
2023/01/06 02:17:04;;;;;;;20.95;10.00;;;10.30;99.90;;;;;;5146060;27;20087;-60
2023/01/06 02:20:13;;;;;;;16.88;9.68;;;10.30;99.90;;;;;;5145929;27;20130;-60
2023/01/06 02:23:11;;;;;;;17.50;8.68;;;10.30;99.90;;;;;;5145662;27;20042;-60
2023/01/06 02:26:18;;;;;;;21.33;8.73;;;10.30;99.90;;;;;;5145599;27;20642;-59
2023/01/06 02:29:18;;;;;;;15.95;7.38;;;10.30;99.90;;;;;;5145577;27;20057;-59
2023/01/06 02:32:13;;;;;;;15.02;7.78;;;10.30;99.90;;;;;;5146121;27;20042;-60
2023/01/06 02:35:01;;;;;;;18.75;8.55;;;10.30;99.90;;;;;;5145305;27;20049;-58
2023/01/06 02:37:56;;;;;;;18.80;8.32;;;10.30;99.90;;;;;;5145533;27;20497;-60
2023/01/06 02:40:51;;;;;;;18.45;7.90;;;10.30;99.90;;;;;;5146512;27;20049;-59
2023/01/06 02:43:51;;;;;;;17.00;7.00;;;10.30;99.90;;;;;;5144282;27;20037;-59
2023/01/06 02:46:46;;;;;;;18.75;7.35;;;10.30;99.90;;;;;;5145761;27;20042;-60
2023/01/06 02:49:38;;;;;;;14.38;6.82;;;10.30;99.90;;;;;;5145552;27;20038;-60
2023/01/06 02:52:30;;;;;;;14.57;6.47;;;10.30;99.90;;;;;;5144697;27;20054;-62
2023/01/06 02:55:06;;;;;;;17.75;6.30;;;10.30;99.90;;;;;;5145718;27;20546;-60
2023/01/06 02:57:52;;;;;;;20.10;7.40;;;10.30;99.90;;;;;;5143693;27;20043;-60
2023/01/06 03:00:34;;;;;;;20.52;6.55;;;10.30;99.90;;;;;;5143413;27;20042;-61
2023/01/06 03:03:03;;;;;;;19.55;7.15;;;10.30;99.90;;;;;;5145133;27;20106;-60
2023/01/06 03:05:32;;;;;;;11.73;6.57;;;10.30;99.90;;;;;;5144892;27;20069;-59
2023/01/06 03:08:01;;;;;;;22.00;7.57;;;10.30;99.90;;;;;;5144289;27;20205;-60
2023/01/06 03:10:28;;;;;;;18.80;6.97;;;10.20;99.90;;;;;;5145084;27;20579;-60
2023/01/06 03:13:05;;;;;;;18.00;6.95;;;10.20;99.90;;;;;;5144955;27;20662;-60
2023/01/06 03:15:31;;;;;;;14.48;7.38;;;10.20;99.90;;;;;;5144871;27;20090;-59
2023/01/06 03:17:57;;;;;;;16.65;6.70;;;10.20;99.90;;;;;;5144371;27;20042;-60
2023/01/06 03:20:23;;;;;;;13.45;6.43;;;10.20;99.90;;;;;;5144231;27;20042;-60
2023/01/06 03:22:48;;;;;;;15.48;6.55;;;10.20;99.90;;;;;;5143915;27;20037;-59
2023/01/06 03:25:14;;;;;;;17.10;6.88;;;10.20;99.90;;;;;;5145221;27;20114;-60
2023/01/06 03:27:40;;;;;;;15.35;6.93;;;10.20;99.90;;;;;;5142747;27;20053;-60
2023/01/06 03:30:09;;;;;;;19.08;7.57;;;10.20;99.90;;;;;;5144784;27;20263;-60
2023/01/06 03:32:59;;;;;;;14.20;6.60;;;10.10;99.90;;;;;;5145243;27;20638;-61
2023/01/06 03:35:35;;;;;;;19.98;7.28;;;10.10;99.90;;;;;;5126104;27;20477;-58
2023/01/06 03:38:08;;;;;;;14.35;6.72;;;10.10;99.90;;;;;;5142905;27;20502;-59
2023/01/06 03:40:50;;;;;;;14.18;6.85;;;10.20;99.90;;;;;;5128861;27;20078;-60
2023/01/06 03:43:46;;;;;;;15.18;6.35;;;10.20;99.90;;;;;;5120868;27;20455;-59
2023/01/06 03:46:15;;;;;;;12.93;7.15;;;10.10;99.90;;;;;;5145660;27;20035;-59
2023/01/06 03:49:03;;;;;;;13.52;6.72;;;10.10;99.90;;;;;;5145079;27;20035;-60
2023/01/06 03:51:43;;;;;;;13.45;5.80;;;10.10;99.90;;;;;;5123634;28;20059;-59
2023/01/06 03:54:19;;;;;;;12.98;6.72;;;10.10;99.90;;;;;;5138161;27;20347;-60
2023/01/06 03:56:50;;;;;;;12.13;6.32;;;10.10;99.90;;;;;;5144834;27;20039;-60
2023/01/06 03:59:22;;;;;;;12.20;6.57;;;10.10;99.90;;;;;;5124229;27;20130;-58
2023/01/06 04:01:48;;;;;;;15.20;7.03;;;10.10;99.90;;;;;;5145149;27;20062;-60
2023/01/06 04:04:16;;;;;;;14.93;7.28;;;10.10;99.90;;;;;;5143047;27;20400;-60
2023/01/06 04:06:41;;;;;;;14.65;7.38;;;10.20;99.90;;;;;;5143952;27;20046;-59
2023/01/06 04:09:07;;;;;;;11.40;6.72;;;10.20;99.90;;;;;;5144474;27;20034;-60
2023/01/06 04:14:17;;;;;;;16.77;7.30;;;10.20;99.90;;;;;;5143237;27;20051;-59
2023/01/06 04:16:42;;;;;;;14.35;7.10;;;10.20;99.90;;;;;;5125807;27;20600;-59
2023/01/06 04:19:08;;;;;;;14.18;7.13;;;10.20;99.90;;;;;;5144155;27;20539;-60
2023/01/06 04:21:33;;;;;;;13.50;8.63;;;10.20;99.90;;;;;;5144324;27;20471;-58
2023/01/06 04:23:59;;;;;;;12.43;7.78;;;10.20;99.90;;;;;;5144408;27;20374;-58
2023/01/06 04:26:25;;;;;;;16.52;8.30;;;10.20;99.90;;;;;;5143718;27;20469;-59
2023/01/06 04:28:50;;;;;;;14.88;6.97;;;10.20;99.90;;;;;;5144035;27;20042;-59
2023/01/06 04:31:16;;;;;;;12.57;6.60;;;10.20;99.90;;;;;;5144403;27;20043;-59
2023/01/06 04:33:42;;;;;;;14.43;6.82;;;10.20;99.90;;;;;;5125279;27;20047;-61
2023/01/06 04:36:10;;;;;;;13.73;6.25;;;10.20;99.90;;;;;;5143169;27;20042;-60
2023/01/06 04:38:36;;;;;;;11.30;6.22;;;10.20;99.90;;;;;;5143223;27;20746;-59
2023/01/06 04:41:01;;;;;;;11.40;5.25;;;10.20;99.90;;;;;;5144893;27;20042;-58
2023/01/06 04:43:27;;;;;;;13.05;5.03;;;10.20;99.90;;;;;;5143605;27;20037;-58
2023/01/06 04:45:52;;;;;;;13.60;5.47;;;10.20;99.90;;;;;;5148189;27;20049;-58
2023/01/06 04:48:18;;;;;;;13.90;5.25;;;10.20;99.90;;;;;;5148618;27;20042;-59
2023/01/06 04:50:44;;;;;;;8.85;4.80;;;10.10;99.90;;;;;;5147565;27;20069;-60
2023/01/06 04:53:11;;;;;;;10.05;4.25;;;10.20;99.90;;;;;;5147489;27;20682;-59
2023/01/06 04:55:38;;;;;;;10.70;4.30;;;10.20;99.90;;;;;;5148086;27;20215;-58
2023/01/06 04:58:04;;;;;;;9.00;4.32;;;10.20;99.90;;;;;;5147355;27;20477;-58
2023/01/06 05:00:29;;;;;;;9.25;4.18;;;10.20;99.90;;;;;;5147405;27;20133;-60
2023/01/06 05:02:55;;;;;;;10.20;4.25;;;10.20;99.90;;;;;;5137313;27;20043;-58
2023/01/06 05:05:20;;;;;;;11.30;4.45;;;10.20;99.90;;;;;;5140126;27;20428;-60
2023/01/06 05:07:46;;;;;;;11.70;4.10;;;10.20;99.90;;;;;;5146447;27;20095;-58
2023/01/06 05:10:11;;;;;;;9.75;4.60;;;10.20;99.90;;;;;;5129556;27;20129;-59
2023/01/06 05:12:37;;;;;;;9.32;4.03;;;10.10;99.90;;;;;;5146516;27;20083;-59
2023/01/06 05:15:03;;;;;;;8.40;3.78;;;10.10;99.90;;;;;;5147363;27;20417;-58
2023/01/06 05:17:29;;;;;;;9.45;4.40;;;10.10;99.90;;;;;;5127997;27;20083;-59
2023/01/06 05:19:55;;;;;;;11.38;4.68;;;10.10;99.90;;;;;;5127966;27;20046;-60
2023/01/06 05:22:20;;;;;;;8.88;4.13;;;10.10;99.90;;;;;;5147218;27;20039;-58
2023/01/06 05:24:46;;;;;;;10.57;4.75;;;10.00;99.90;;;;;;5147742;27;20439;-58
2023/01/06 05:27:12;;;;;;;11.77;4.65;;;10.10;99.90;;;;;;5147436;27;20474;-57
2023/01/06 05:29:37;;;;;;;9.43;4.53;;;10.10;99.90;;;;;;5145887;27;20389;-58
2023/01/06 05:32:04;;;;;;;11.80;4.85;;;10.10;99.90;;;;;;5129172;27;20046;-58
2023/01/06 05:34:29;;;;;;;9.77;5.57;;;10.10;99.90;;;;;;5146132;27;20482;-59
2023/01/06 05:36:55;;;;;;;10.27;5.75;;;10.10;99.90;;;;;;5145972;27;20034;-58
2023/01/06 05:39:21;;;;;;;10.57;6.28;;;10.20;99.90;;;;;;5146656;27;20039;-59
2023/01/06 05:41:47;;;;;;;10.48;7.03;;;10.20;99.90;;;;;;5147317;27;20050;-58
2023/01/06 05:44:13;;;;;;;13.20;6.68;;;10.20;99.90;;;;;;5145740;27;20152;-59
2023/01/06 05:46:38;;;;;;;12.50;7.13;;;10.20;99.90;;;;;;5147094;27;20062;-60
2023/01/06 05:49:04;;;;;;;15.77;7.40;;;10.10;99.90;;;;;;5145302;27;20069;-58
2023/01/06 05:51:29;;;;;;;11.70;6.88;;;10.10;99.90;;;;;;5145700;27;20054;-59
2023/01/06 05:53:55;;;;;;;12.93;7.00;;;10.10;99.90;;;;;;5146461;27;20871;-59
2023/01/06 05:56:22;;;;;;;11.65;6.40;;;10.10;99.90;;;;;;5126948;27;20042;-57
2023/01/06 05:58:50;;;;;;;9.07;6.68;;;10.20;99.90;;;;;;5145157;27;20042;-56
2023/01/06 06:01:19;;;;;;;11.93;6.68;;;10.10;99.90;;;;;;5147092;27;20493;-59
2023/01/06 06:03:45;;;;;;;12.38;6.47;;;10.10;99.90;;;;;;5146940;27;20035;-58
2023/01/06 06:06:11;;;;;;;12.73;7.60;;;10.10;99.90;;;;;;5145623;27;20075;-57
2023/01/06 06:08:36;;;;;;;12.27;7.10;;;10.00;99.90;;;;;;5114937;27;20047;-59
2023/01/06 06:11:03;;;;;;;16.67;7.35;;;10.00;99.90;;;;;;5122499;27;20072;-57
2023/01/06 06:13:29;;;;;;;14.05;7.25;;;10.00;99.90;;;;;;5144905;27;20038;-57
2023/01/06 06:16:06;;;;;;;13.20;7.07;;;9.90;99.90;;;;;;5127901;27;20146;-59
2023/01/06 06:18:32;;;;;;;15.68;6.95;;;9.90;99.90;;;;;;5128172;27;20035;-61
2023/01/06 06:21:02;;;;;;;11.07;7.00;;;9.80;99.90;;;;;;5145291;27;20109;-59
2023/01/06 06:23:29;;;;;;;13.82;8.15;;;9.80;99.90;;;;;;5145381;27;20374;-59
2023/01/06 06:25:54;;;;;;;12.98;7.82;;;9.80;99.90;;;;;;5146427;27;20045;-61
2023/01/06 06:28:20;;;;;;;13.07;8.20;;;9.80;99.90;;;;;;5145130;27;20023;-58
2023/01/06 06:30:46;;;;;;;17.08;8.90;;;9.80;99.90;;;;;;5127953;27;20489;-59
2023/01/06 06:33:11;;;;;;;15.32;8.90;;;9.80;99.90;;;;;;5110307;27;20043;-61
2023/01/06 06:35:37;;;;;;;14.30;9.57;;;9.80;99.90;;;;;;5144865;27;20122;-59
2023/01/06 06:38:02;;;;;;;14.25;9.02;;;9.70;99.90;;;;;;5145144;27;20039;-60
2023/01/06 06:40:28;;;;;;;15.38;9.77;;;9.70;99.90;;;;;;5145231;27;20038;-59
2023/01/06 06:42:53;;;;;;;16.48;9.27;;;9.70;99.90;;;;;;5145811;27;20843;-58
2023/01/06 06:45:19;;;;;;;15.63;9.70;;;9.70;99.90;;;;;;5145465;27;20473;-61
2023/01/06 06:47:44;;;;;;;12.77;10.25;;;9.70;99.90;;;;;;5145092;27;20039;-61
2023/01/06 06:50:11;;;;;;;15.15;9.95;;;9.80;99.90;;;;;;5145257;27;20054;-59
2023/01/06 06:52:36;;;;;;;19.10;10.68;;;9.80;99.90;;;;;;5145010;27;20166;-61
2023/01/06 06:55:02;;;;;;;17.50;11.35;;;9.80;99.90;;;;;;5144802;27;20462;-60
2023/01/06 06:57:28;;;;;;;17.70;11.02;;;9.80;99.90;;;;;;5109703;27;20141;-59
2023/01/06 06:59:53;;;;;;;16.13;11.18;;;9.70;99.90;;;;;;5144203;27;20468;-60
2023/01/06 07:02:19;;;;;;;16.45;10.80;;;9.70;99.90;;;;;;5145633;27;20106;-59
2023/01/06 07:04:45;;;;;;;16.67;10.57;;;9.70;99.90;;;;;;5125856;27;20062;-61
2023/01/06 07:07:10;;;;;;;14.70;10.60;;;9.70;99.90;;;;;;5144068;27;20043;-60
2023/01/06 07:09:36;;;;;;;12.52;8.02;;;9.70;99.90;;;;;;5144233;27;20042;-60
2023/01/06 07:12:02;;;;;;;13.63;9.85;;;9.70;99.90;;;;;;5127830;27;20059;-61
2023/01/06 07:14:27;;;;;;;18.38;9.77;;;9.70;99.90;;;;;;5125515;27;20031;-60
2023/01/06 07:16:53;;;;;;;17.33;11.02;;;9.70;99.90;;;;;;5145132;27;20035;-58
2023/01/06 07:19:18;;;;;;;63.95;20.92;;;9.70;99.90;;;;;;5144619;27;20035;-58
2023/01/06 07:21:44;;;;;;;17.00;10.60;;;9.70;99.90;;;;;;5144919;27;20118;-58
2023/01/06 07:24:09;;;;;;;15.13;10.18;;;9.60;99.90;;;;;;5144697;27;20614;-59
2023/01/06 07:26:35;;;;;;;13.52;9.45;;;9.60;99.90;;;;;;5145293;27;20035;-59
2023/01/06 07:29:01;;;;;;;14.40;10.05;;;9.60;99.90;;;;;;5143734;27;20134;-56
2023/01/06 07:31:26;;;;;;;13.32;9.50;;;9.60;99.90;;;;;;5115082;27;20035;-55
2023/01/06 07:33:52;;;;;;;14.20;9.25;;;9.60;99.90;;;;;;5124810;27;20092;-58
2023/01/06 07:36:17;;;;;;;12.43;8.13;;;9.50;99.90;;;;;;5144098;27;20103;-58
2023/01/06 07:38:43;;;;;;;12.45;8.93;;;9.60;99.90;;;;;;5143464;27;20125;-58
2023/01/06 07:41:09;;;;;;;14.18;10.18;;;9.60;99.90;;;;;;5140066;27;20134;-60
2023/01/06 07:43:34;;;;;;;9.15;6.60;;;9.60;99.90;;;;;;5139104;27;20027;-60
2023/01/06 07:46:00;;;;;;;9.35;6.50;;;9.60;99.90;;;;;;5135804;27;20035;-57
2023/01/06 07:48:25;;;;;;;9.05;6.00;;;9.60;99.90;;;;;;5133357;27;20045;-57
2023/01/06 07:50:51;;;;;;;7.78;4.50;;;9.70;99.90;;;;;;5136170;27;20079;-58
2023/01/06 07:53:16;;;;;;;8.20;3.67;;;9.70;99.90;;;;;;5134326;27;20055;-60
2023/01/06 07:55:49;;;;;;;6.63;3.10;;;9.80;99.90;;;;;;5133893;27;20035;-58
2023/01/06 07:58:15;;;;;;;7.18;3.40;;;9.80;99.90;;;;;;5144475;27;20431;-59
2023/01/06 08:00:40;;;;;;;7.82;3.20;;;9.80;99.90;;;;;;5140701;27;20073;-59
2023/01/06 08:03:07;;;;;;;6.07;2.90;;;9.80;99.90;;;;;;5129331;27;20038;-58
2023/01/06 08:05:36;;;;;;;7.13;2.40;;;9.80;99.90;;;;;;5143736;27;20080;-58
2023/01/06 08:08:02;;;;;;;8.02;1.88;;;9.80;99.90;;;;;;5143733;27;20595;-59
2023/01/06 08:10:27;;;;;;;5.05;1.27;;;9.80;99.90;;;;;;5145341;27;20064;-58
2023/01/06 08:12:53;;;;;;;4.65;1.60;;;9.70;99.90;;;;;;5143022;27;20053;-59
2023/01/06 08:15:19;;;;;;;5.13;1.50;;;9.60;99.90;;;;;;5144128;27;20043;-58
2023/01/06 08:17:44;;;;;;;8.07;1.98;;;9.60;99.90;;;;;;5125979;27;20066;-59
2023/01/06 08:20:10;;;;;;;5.60;1.40;;;9.50;99.90;;;;;;5138634;27;20027;-58
2023/01/06 08:22:35;;;;;;;4.88;1.10;;;9.40;99.90;;;;;;5137316;27;20137;-60
2023/01/06 08:25:01;;;;;;;5.60;1.40;;;9.30;99.90;;;;;;5143290;27;20496;-58
2023/01/06 08:27:26;;;;;;;6.35;1.38;;;9.30;99.90;;;;;;5129060;27;20067;-59
2023/01/06 08:29:54;;;;;;;5.32;1.30;;;9.20;99.90;;;;;;5125396;27;20039;-59
2023/01/06 08:32:19;;;;;;;7.25;1.20;;;9.10;99.90;;;;;;5138863;27;20504;-61
2023/01/06 08:34:45;;;;;;;5.18;1.00;;;9.10;99.90;;;;;;5138436;27;20081;-60
2023/01/06 08:37:11;;;;;;;5.68;0.98;;;9.00;99.90;;;;;;5118829;27;20041;-59
2023/01/06 08:39:36;;;;;;;6.40;1.20;;;9.00;99.90;;;;;;5140658;27;20099;-59
2023/01/06 08:42:02;;;;;;;3.85;1.10;;;8.90;99.90;;;;;;5148632;27;20490;-59
2023/01/06 08:44:27;;;;;;;6.97;1.45;;;8.90;99.90;;;;;;5146883;27;20765;-60
2023/01/06 08:46:53;;;;;;;5.70;1.20;;;8.90;99.90;;;;;;5142663;27;20509;-60
2023/01/06 08:49:18;;;;;;;6.25;1.20;;;8.80;99.90;;;;;;5128053;27;20442;-60
2023/01/06 08:51:44;;;;;;;5.65;0.95;;;8.80;99.90;;;;;;5146157;27;20047;-60
2023/01/06 08:54:10;;;;;;;6.85;1.80;;;8.80;99.90;;;;;;5143745;27;20087;-59
2023/01/06 08:56:37;;;;;;;10.02;1.13;;;8.70;99.90;;;;;;5121569;27;20035;-61
2023/01/06 08:59:04;;;;;;;8.20;1.35;;;8.70;99.90;;;;;;5139568;27;20485;-61
2023/01/06 09:01:32;;;;;;;6.65;1.50;;;8.70;99.90;;;;;;5117120;27;20099;-60
2023/01/06 09:03:59;;;;;;;9.57;1.40;;;8.70;99.90;;;;;;5142184;27;20035;-60
2023/01/06 09:06:26;;;;;;;9.93;1.55;;;8.70;99.90;;;;;;5109338;27;20054;-61
2023/01/06 09:08:52;;;;;;;4.57;1.00;;;8.70;99.90;;;;;;5127669;27;20118;-60
2023/01/06 09:11:18;;;;;;;5.60;1.02;;;8.70;99.90;;;;;;5127814;27;20070;-61
2023/01/06 09:13:44;;;;;;;7.18;1.20;;;8.70;99.90;;;;;;5140704;27;20066;-60
2023/01/06 09:16:11;;;;;;;7.53;1.20;;;8.70;99.90;;;;;;5133741;27;20043;-58
2023/01/06 09:18:37;;;;;;;8.05;1.23;;;8.70;99.90;;;;;;5108594;27;20054;-61
2023/01/06 09:21:03;;;;;;;5.63;1.00;;;8.70;99.90;;;;;;5125368;27;20042;-60
2023/01/06 09:23:30;;;;;;;8.18;1.45;;;8.70;99.90;;;;;;5131834;27;20035;-60
2023/01/06 09:25:57;;;;;;;10.52;1.55;;;8.70;99.90;;;;;;5134586;27;20417;-59
2023/01/06 09:28:23;;;;;;;14.48;1.58;;;8.70;99.90;;;;;;5139930;27;20470;-62
2023/01/06 09:30:49;;;;;;;8.23;1.33;;;8.70;99.90;;;;;;5142992;27;20109;-57
2023/01/06 09:33:15;;;;;;;5.80;1.10;;;8.70;99.90;;;;;;5139831;27;20222;-60
2023/01/06 09:35:43;;;;;;;13.27;1.73;;;8.70;99.90;;;;;;5135570;27;20394;-61
2023/01/06 09:38:09;;;;;;;11.60;1.60;;;8.70;99.90;;;;;;5134777;27;20066;-60
2023/01/06 09:41:15;;;;;;;10.77;1.50;;;8.70;99.90;;;;;;5138443;27;20462;-59
2023/01/06 09:43:41;;;;;;;9.65;1.67;;;8.70;99.90;;;;;;5118452;27;20043;-58
2023/01/06 09:46:08;;;;;;;7.85;1.60;;;8.70;99.90;;;;;;5140378;27;20149;-58
2023/01/06 09:48:43;;;;;;;10.30;1.92;;;8.70;99.90;;;;;;5136380;27;20039;-59
2023/01/06 09:51:16;;;;;;;13.57;2.10;;;8.80;99.90;;;;;;5136730;27;20761;-58
2023/01/06 09:53:49;;;;;;;12.85;1.85;;;8.80;99.90;;;;;;5135050;27;20390;-59
2023/01/06 09:56:18;;;;;;;18.77;2.40;;;8.80;99.90;;;;;;5116633;27;21049;-59
2023/01/06 09:59:03;;;;;;;17.65;2.15;;;8.80;99.90;;;;;;5139062;27;20607;-59
2023/01/06 10:01:34;;;;;;;15.57;2.53;;;8.80;99.90;;;;;;5136428;27;20065;-60
2023/01/06 10:04:00;;;;;;;17.90;2.55;;;8.80;99.90;;;;;;5133652;27;20043;-59
2023/01/06 10:06:33;;;;;;;11.38;2.05;;;8.80;99.90;;;;;;5135041;27;20027;-59
2023/01/06 10:09:08;;;;;;;13.82;2.13;;;8.90;99.90;;;;;;5115992;27;20031;-58
2023/01/06 10:11:45;;;;;;;16.70;2.33;;;8.90;99.90;;;;;;5132591;27;20458;-59
2023/01/06 10:14:37;;;;;;;19.08;2.10;;;9.00;99.90;;;;;;5138591;27;20038;-60
2023/01/06 10:17:20;;;;;;;12.65;1.98;;;9.00;99.90;;;;;;5129558;27;20655;-59
2023/01/06 10:20:24;;;;;;;18.90;2.45;;;9.10;99.90;;;;;;5140520;27;20123;-59
2023/01/06 10:23:01;;;;;;;17.38;2.70;;;9.20;99.90;;;;;;5136116;27;20126;-59
2023/01/06 10:25:45;;;;;;;8.45;1.55;;;9.20;99.90;;;;;;5134889;27;20064;-60
2023/01/06 10:28:36;;;;;;;11.32;2.67;;;9.20;99.90;;;;;;5137483;27;20171;-60
2023/01/06 10:31:10;;;;;;;14.02;2.58;;;9.20;99.90;;;;;;5115169;27;20054;-57
2023/01/06 10:33:40;;;;;;;;;;;9.20;99.90;;;;;;5128369;27;20039;-59
2023/01/06 10:36:16;;;;;;;10.27;1.75;;;9.20;99.90;;;;;;5129543;27;19951;-59
2023/01/06 10:38:45;;;;;;;12.80;1.98;;;9.30;99.90;;;;;;5134454;27;20546;-60
2023/01/06 10:41:37;;;;;;;12.63;1.80;;;9.30;99.90;;;;;;5142489;27;20497;-59
2023/01/06 10:44:03;;;;;;;12.40;1.63;;;9.30;99.90;;;;;;5135991;27;20078;-59
2023/01/06 10:46:33;;;;;;;12.10;1.80;;;9.30;99.90;;;;;;5124952;27;20043;-59
2023/01/06 10:49:03;;;;;;;16.80;2.53;;;9.40;99.90;;;;;;5138174;27;20569;-61
2023/01/06 10:51:37;;;;;;;11.30;2.03;;;9.50;99.90;;;;;;5124463;27;20134;-58
2023/01/06 10:54:08;;;;;;;12.45;2.08;;;9.60;99.90;;;;;;5135057;27;20503;-60
2023/01/06 10:56:36;;;;;;;10.13;1.95;;;9.80;99.90;;;;;;5133637;27;20062;-57
2023/01/06 10:59:07;;;;;;;13.43;1.75;;;9.80;99.90;;;;;;5132689;27;20061;-59
2023/01/06 11:01:36;;;;;;;11.23;2.63;;;9.90;99.90;;;;;;5136128;27;20035;-59
2023/01/06 11:04:11;;;;;;;9.88;1.80;;;9.90;99.90;;;;;;5127432;27;20035;-59
2023/01/06 11:06:44;;;;;;;11.25;1.90;;;9.80;99.90;;;;;;5123560;27;20422;-59
2023/01/06 11:09:28;;;;;;;12.80;1.90;;;9.60;99.90;;;;;;5128450;27;20049;-58
2023/01/06 11:11:56;;;;;;;15.45;2.30;;;9.50;99.90;;;;;;5136457;27;20043;-57
2023/01/06 11:14:28;;;;;;;16.38;2.78;;;9.40;99.90;;;;;;5122683;27;20150;-57
2023/01/06 11:17:00;;;;;;;11.93;2.10;;;9.30;99.90;;;;;;5145010;27;20069;-58
2023/01/06 11:19:38;;;;;;;14.35;2.05;;;9.40;99.90;;;;;;5141798;27;20049;-58
2023/01/06 11:22:41;;;;;;;18.10;2.95;;;9.50;99.90;;;;;;5126633;27;20329;-59
2023/01/06 11:25:18;;;;;;;11.50;1.80;;;9.40;99.90;;;;;;5128307;27;20084;-59
2023/01/06 11:27:47;;;;;;;11.75;1.73;;;9.50;99.90;;;;;;5117226;27;20464;-58
2023/01/06 11:30:24;;;;;;;18.13;2.30;;;9.60;99.90;;;;;;5131370;27;20027;-59
2023/01/06 11:32:50;;;;;;;14.10;2.35;;;9.60;99.90;;;;;;5140500;27;20112;-58
2023/01/06 11:35:19;;;;;;;13.35;2.05;;;9.60;99.90;;;;;;5143825;27;20083;-57
2023/01/06 11:37:45;;;;;;;15.13;2.10;;;9.60;99.90;;;;;;5118706;27;20042;-57
2023/01/06 11:40:25;;;;;;;13.30;2.28;;;9.70;99.90;;;;;;5144949;27;20045;-58
2023/01/06 11:42:55;;;;;;;15.00;2.65;;;9.90;99.90;;;;;;5130268;27;20035;-59
2023/01/06 11:45:32;;;;;;;8.68;2.00;;;10.10;99.90;;;;;;5137451;27;20398;-59
2023/01/06 11:47:57;;;;;;;10.65;1.88;;;10.30;99.90;;;;;;5113145;27;20526;-58
2023/01/06 11:50:23;;;;;;;23.15;2.53;;;10.50;99.90;;;;;;5143670;27;20042;-58
2023/01/06 11:53:03;;;;;;;11.63;2.15;;;10.40;99.90;;;;;;5141640;27;20568;-59
2023/01/06 11:55:29;;;;;;;12.55;1.70;;;10.50;99.90;;;;;;5147332;27;20043;-60
2023/01/06 11:58:00;;;;;;;11.23;1.95;;;10.50;99.90;;;;;;5147989;27;20053;-60
2023/01/06 12:00:44;;;;;;;18.15;2.08;;;10.50;99.90;;;;;;5148163;27;20490;-60
2023/01/06 12:03:22;;;;;;;11.10;1.95;;;10.50;99.90;;;;;;5137574;27;20488;-61
2023/01/06 12:06:12;;;;;;;16.20;2.72;;;10.40;99.90;;;;;;5133592;27;20043;-60
2023/01/06 12:08:52;;;;;;;16.02;2.40;;;10.40;99.90;;;;;;5127480;27;20292;-59
2023/01/06 12:11:46;;;;;;;13.90;2.28;;;10.40;99.90;;;;;;5137844;27;20031;-60
2023/01/06 12:14:19;;;;;;;9.88;1.83;;;10.30;99.90;;;;;;5140376;27;20050;-61
2023/01/06 12:16:59;;;;;;;16.23;2.53;;;10.30;99.90;;;;;;5147595;27;20499;-60
2023/01/06 12:19:48;;;;;;;12.63;2.08;;;10.20;99.90;;;;;;5138392;27;20066;-59
2023/01/06 12:22:30;;;;;;;12.43;2.00;;;10.10;99.90;;;;;;5111032;27;20424;-61
2023/01/06 12:24:58;;;;;;;14.30;2.20;;;10.00;99.90;;;;;;5137318;27;20038;-60
2023/01/06 12:27:31;;;;;;;14.75;2.20;;;10.00;99.90;;;;;;5135888;27;20035;-62
2023/01/06 12:30:02;;;;;;;12.60;2.15;;;10.00;99.90;;;;;;5137061;27;20035;-61
2023/01/06 12:32:37;;;;;;;11.82;1.83;;;9.90;99.90;;;;;;5141478;27;20035;-61
2023/01/06 12:35:05;;;;;;;13.25;1.85;;;9.90;99.90;;;;;;5132853;27;20212;-61
2023/01/06 12:37:41;;;;;;;15.75;2.03;;;9.80;99.90;;;;;;5109717;27;20042;-60
2023/01/06 12:40:38;;;;;;;13.88;2.33;;;9.80;99.90;;;;;;5132463;27;20027;-61
2023/01/06 12:43:13;;;;;;;9.20;1.83;;;9.80;99.90;;;;;;5133586;27;20050;-60
2023/01/06 12:46:02;;;;;;;14.18;2.30;;;9.70;99.90;;;;;;5126683;27;20035;-60
2023/01/06 12:48:39;;;;;;;13.40;2.22;;;9.70;99.90;;;;;;5090069;27;20066;-61
2023/01/06 12:51:20;;;;;;;15.75;2.38;;;9.70;99.90;;;;;;5108147;27;20039;-60
2023/01/06 12:54:00;;;;;;;16.10;2.42;;;9.60;99.90;;;;;;5131617;27;20062;-61
2023/01/06 12:56:34;;;;;;;14.18;2.25;;;9.60;99.90;;;;;;5114772;27;20084;-60
2023/01/06 12:59:25;;;;;;;14.70;3.17;;;9.60;99.90;;;;;;5131305;27;20110;-58
2023/01/06 13:02:00;;;;;;;16.70;2.03;;;9.60;99.90;;;;;;5138086;27;20035;-60
2023/01/06 13:04:40;;;;;;;15.40;2.13;;;9.70;99.90;;;;;;5132361;27;20038;-59
2023/01/06 13:07:36;;;;;;;13.23;2.50;;;9.70;99.90;;;;;;5129517;27;20035;-60